Time;durP1;ratioP1;P1;durP2;ratioP2;P2;SDS_P1;SDS_P2;PMS_P1;PMS_P2;Temp;Humidity;BMP_temperature;BMP_pressure;BME280_temperature;BME280_humidity;BME280_pressure;Samples;Min_cycle;Max_cycle;Signal;HPM_P1;HPM_P2
2024/01/15 00:23:19;;;;;;;55.22;18.23;;;1.60;99.90;;;;;;5130448;22;88469;-76
2024/01/15 00:28:20;;;;;;;54.78;19.27;;;1.60;99.90;;;;;;5882712;22;87199;-75
2024/01/15 00:30:46;;;;;;;52.50;18.17;;;1.60;99.90;;;;;;5145259;22;86011;-76
2024/01/15 00:35:50;;;;;;;50.80;20.13;;;1.60;99.90;;;;;;5087655;22;86874;-76
2024/01/15 00:40:46;;;;;;;53.13;19.20;;;1.70;99.90;;;;;;5218456;22;86352;-77
2024/01/15 00:45:47;;;;;;;58.70;20.02;;;1.70;99.90;;;;;;5427430;22;86570;-75
2024/01/15 00:53:24;;;;;;;61.67;20.02;;;1.60;99.90;;;;;;5107389;22;87307;-76
2024/01/15 00:55:50;;;;;;;56.70;19.50;;;1.60;99.90;;;;;;5047954;28;86716;-76
2024/01/15 01:00:51;;;;;;;55.85;19.65;;;1.50;99.90;;;;;;5345284;22;85854;-75
2024/01/15 01:03:17;;;;;;;61.60;19.23;;;1.50;99.90;;;;;;5149789;22;86416;-75
2024/01/15 01:05:43;;;;;;;59.17;18.98;;;1.50;99.90;;;;;;5458841;22;89153;-75
2024/01/15 01:10:45;;;;;;;59.60;19.20;;;1.50;99.90;;;;;;5755746;22;86838;-77
2024/01/15 01:20:53;;;;;;;62.38;19.90;;;1.40;99.90;;;;;;5931942;22;87154;-75
2024/01/15 01:23:19;;;;;;;59.75;18.67;;;1.50;99.90;;;;;;5115265;22;87035;-75
2024/01/15 01:36:08;;;;;;;51.78;18.13;;;1.50;99.90;;;;;;5872611;22;87161;-75
2024/01/15 01:41:12;;;;;;;60.30;20.02;;;1.40;99.90;;;;;;6086003;22;88107;-75
2024/01/15 01:48:49;;;;;;;51.90;17.83;;;1.50;99.90;;;;;;5519357;22;86638;-75
2024/01/15 01:59:02;;;;;;;51.22;16.83;;;1.50;99.90;;;;;;5672640;22;87082;-78
2024/01/15 02:01:29;;;;;;;50.85;17.33;;;1.50;99.90;;;;;;5260455;22;85618;-76
2024/01/15 09:35:10;;;;;;;15.80;6.10;;;1.70;99.90;;;;;;6191094;22;87353;31
2024/01/15 10:02:53;;;;;;;17.42;6.05;;;2.00;99.90;;;;;;6150638;22;86125;-79
2024/01/15 10:05:19;;;;;;;15.90;5.80;;;2.00;99.90;;;;;;6122766;22;86639;-78
2024/01/15 10:07:49;;;;;;;18.92;6.95;;;2.00;99.90;;;;;;6147914;22;86296;-77
2024/01/15 10:10:15;;;;;;;17.48;5.65;;;2.10;99.90;;;;;;6147788;22;86951;-77
2024/01/15 10:12:42;;;;;;;16.85;4.93;;;2.10;99.90;;;;;;6145164;22;86228;-80
2024/01/15 10:15:11;;;;;;;19.95;4.47;;;2.10;99.90;;;;;;6160278;22;86145;-78
2024/01/15 10:17:39;;;;;;;15.75;5.03;;;2.20;99.90;;;;;;6169349;22;86206;-78
2024/01/15 10:20:12;;;;;;;13.85;3.75;;;2.20;99.90;;;;;;6171222;22;85704;-79
2024/01/15 10:22:48;;;;;;;9.27;3.33;;;2.20;99.90;;;;;;6168739;22;85579;-79
2024/01/15 10:25:14;;;;;;;14.35;4.00;;;2.30;99.90;;;;;;6150633;22;85519;-81
2024/01/15 10:27:44;;;;;;;10.02;3.28;;;2.30;99.90;;;;;;6179117;22;87526;-78
2024/01/15 10:30:11;;;;;;;13.85;3.25;;;2.40;99.90;;;;;;6208414;22;85989;-77
2024/01/15 10:32:37;;;;;;;12.65;3.45;;;2.40;99.90;;;;;;6235817;22;86156;-79
2024/01/15 10:35:04;;;;;;;9.30;2.58;;;2.40;99.90;;;;;;6199039;22;87390;-77
2024/01/15 10:37:35;;;;;;;7.18;2.25;;;2.50;99.90;;;;;;6209930;22;86425;-78
2024/01/15 10:40:04;;;;;;;9.70;2.83;;;2.70;99.90;;;;;;6213096;22;86115;-79
2024/01/15 10:45:08;;;;;;;9.30;2.28;;;3.00;99.90;;;;;;6201515;22;87093;-76
2024/01/15 10:47:36;;;;;;;10.95;2.20;;;3.10;99.90;;;;;;6212833;22;85935;-76
2024/01/15 10:50:03;;;;;;;9.35;2.17;;;3.20;99.90;;;;;;6212748;22;87538;-77
2024/01/15 10:52:29;;;;;;;13.23;2.00;;;3.30;99.90;;;;;;6213821;22;85846;-78
2024/01/15 10:54:55;;;;;;;16.45;2.75;;;3.40;99.90;;;;;;6185457;22;85992;-75
2024/01/15 10:57:23;;;;;;;16.65;1.80;;;3.50;99.90;;;;;;6212095;22;86242;-78
2024/01/15 10:59:48;;;;;;;9.80;1.55;;;3.50;99.90;;;;;;6211342;22;86300;-77
2024/01/15 11:02:15;;;;;;;9.00;1.90;;;3.50;99.90;;;;;;6212084;22;86213;-77
2024/01/15 11:04:41;;;;;;;11.75;3.25;;;3.60;99.90;;;;;;6211759;22;86106;-76
2024/01/15 11:07:10;;;;;;;9.75;1.75;;;3.70;99.90;;;;;;6183985;22;86123;-77
2024/01/15 11:09:37;;;;;;;13.52;2.85;;;3.80;99.90;;;;;;6183806;22;86538;-78
2024/01/15 11:12:13;;;;;;;9.88;1.65;;;3.90;99.90;;;;;;6184443;22;86388;-77
2024/01/15 11:14:45;;;;;;;9.00;1.48;;;3.90;99.90;;;;;;6217105;22;85723;-76
2024/01/15 11:17:12;;;;;;;13.38;1.98;;;4.00;99.90;;;;;;6120431;22;86554;-77
2024/01/15 11:19:41;;;;;;;13.60;1.70;;;4.10;99.90;;;;;;6119874;23;87460;-78
2024/01/15 11:22:29;;;;;;;12.57;1.52;;;4.20;99.90;;;;;;6119637;23;86373;-78
2024/01/15 11:24:56;;;;;;;8.40;1.80;;;4.30;99.90;;;;;;6121491;23;86237;-78
2024/01/15 11:27:44;;;;;;;9.98;1.20;;;4.40;99.90;;;;;;6121159;23;86927;-78
2024/01/15 11:30:11;;;;;;;12.00;1.40;;;4.50;99.90;;;;;;6118017;22;87309;-76
2024/01/15 11:32:41;;;;;;;8.98;1.90;;;4.70;99.90;;;;;;6118014;23;87359;-76
2024/01/15 11:35:08;;;;;;;14.98;1.50;;;4.80;99.90;;;;;;6119847;23;87028;-77
2024/01/15 11:37:54;;;;;;;10.85;1.13;;;5.00;99.90;;;;;;6120219;23;86331;-77
2024/01/15 11:40:20;;;;;;;6.47;1.52;;;5.10;99.90;;;;;;6117549;23;87630;-77
2024/01/15 11:42:47;;;;;;;16.05;1.70;;;5.00;99.90;;;;;;6119483;23;87481;-78
2024/01/15 11:45:18;;;;;;;7.80;1.40;;;4.90;99.90;;;;;;6117368;23;86641;-76
2024/01/15 11:48:14;;;;;;;6.10;1.65;;;4.70;99.90;;;;;;6117501;23;86296;-75
2024/01/15 11:50:49;;;;;;;8.75;1.63;;;4.50;99.90;;;;;;6119590;23;86844;-77
2024/01/15 11:53:40;;;;;;;15.65;1.20;;;4.20;99.90;;;;;;6119060;23;87864;-76
2024/01/15 11:56:16;;;;;;;7.15;1.30;;;4.10;99.90;;;;;;6122097;22;86267;-76
2024/01/15 11:58:43;;;;;;;4.90;1.27;;;4.00;99.90;;;;;;6125258;22;86232;-76
2024/01/15 12:01:13;;;;;;;9.60;1.63;;;3.90;99.90;;;;;;6124069;23;87029;-76
2024/01/15 12:03:40;;;;;;;6.35;2.08;;;3.80;99.90;;;;;;6120499;23;86109;-78
2024/01/15 12:06:07;;;;;;;4.13;1.48;;;3.70;99.90;;;;;;6084332;22;86492;-76
2024/01/15 12:08:33;;;;;;;9.13;2.10;;;3.60;99.90;;;;;;6083406;23;86764;-76
2024/01/15 12:10:59;;;;;;;6.10;1.55;;;3.50;99.90;;;;;;6108224;23;87352;-77
2024/01/15 12:13:24;;;;;;;11.25;1.90;;;3.40;99.90;;;;;;6119449;23;87067;-78
2024/01/15 12:15:50;;;;;;;10.32;2.45;;;3.30;99.90;;;;;;6118801;23;86158;-78
2024/01/15 12:18:18;;;;;;;15.25;4.60;;;3.20;99.90;;;;;;6120682;23;86010;-77
2024/01/15 12:20:46;;;;;;;13.45;2.65;;;3.20;99.90;;;;;;6124172;23;86939;-78
2024/01/15 12:23:13;;;;;;;9.57;2.55;;;3.30;99.90;;;;;;6124325;23;86461;-79
2024/01/15 12:25:40;;;;;;;14.13;2.47;;;3.20;99.90;;;;;;6130825;22;85930;-78
2024/01/15 12:28:06;;;;;;;10.35;2.25;;;3.20;99.90;;;;;;6122198;23;86243;-79
2024/01/15 12:30:34;;;;;;;8.80;2.45;;;3.00;99.90;;;;;;6122852;23;86609;-78
2024/01/15 12:33:03;;;;;;;13.38;3.08;;;3.00;99.90;;;;;;6120921;23;87376;-79
2024/01/15 12:35:30;;;;;;;11.77;3.25;;;2.90;99.90;;;;;;6123113;23;86463;-79
2024/01/15 12:37:56;;;;;;;11.00;2.60;;;2.80;99.90;;;;;;6121990;23;86361;-78
2024/01/15 12:40:23;;;;;;;4.45;1.90;;;2.60;99.90;;;;;;6122336;22;87149;-77
2024/01/15 12:42:49;;;;;;;9.20;2.35;;;2.50;99.90;;;;;;6124250;23;86145;-75
2024/01/15 12:45:15;;;;;;;7.57;2.67;;;2.40;99.90;;;;;;6141054;22;86384;-79
2024/01/15 12:47:42;;;;;;;4.85;2.28;;;2.30;99.90;;;;;;6128222;22;85951;-77
2024/01/15 12:50:12;;;;;;;7.05;2.92;;;2.20;99.90;;;;;;6125501;22;86905;-77
2024/01/15 12:52:39;;;;;;;4.95;2.00;;;2.10;99.90;;;;;;6125582;22;87818;-78
2024/01/15 12:55:07;;;;;;;8.50;3.08;;;2.10;99.90;;;;;;6129229;22;86063;-79
2024/01/15 12:57:34;;;;;;;4.85;2.20;;;2.00;99.90;;;;;;6155137;22;86284;-79
2024/01/15 12:59:59;;;;;;;8.18;3.00;;;2.00;99.90;;;;;;6154837;22;87038;-78
2024/01/15 13:02:25;;;;;;;6.93;2.60;;;2.00;99.90;;;;;;6154554;22;85841;-76
2024/01/15 13:04:51;;;;;;;6.47;2.63;;;1.90;99.90;;;;;;6155922;22;86016;-79
2024/01/15 13:07:18;;;;;;;5.00;2.03;;;1.90;99.90;;;;;;6130382;22;86197;-77
2024/01/15 13:09:44;;;;;;;6.30;2.42;;;1.90;99.90;;;;;;6129222;22;87728;-78
2024/01/15 13:15:33;;;;;;;9.98;3.60;;;1.90;99.90;;;;;;6158954;22;85951;-79
2024/01/15 13:17:58;;;;;;;12.00;3.05;;;1.90;99.90;;;;;;6115121;22;86099;-75
2024/01/15 13:20:24;;;;;;;6.53;2.30;;;1.90;99.90;;;;;;6136026;22;86439;-76
2024/01/15 13:22:51;;;;;;;7.55;1.95;;;1.90;99.90;;;;;;6156141;22;86213;-76
2024/01/15 13:25:16;;;;;;;4.32;1.80;;;1.80;99.90;;;;;;6130433;22;86248;-75
2024/01/15 13:27:42;;;;;;;6.65;2.42;;;1.80;99.90;;;;;;6128442;22;85867;-78
2024/01/15 13:30:10;;;;;;;12.43;3.20;;;1.80;99.90;;;;;;6150806;22;86678;-76
2024/01/15 13:32:36;;;;;;;11.18;2.10;;;1.70;99.90;;;;;;6162471;22;86335;-79
2024/01/15 13:35:12;;;;;;;4.78;2.03;;;1.70;99.90;;;;;;6140624;22;86325;-79
2024/01/15 13:37:41;;;;;;;8.02;2.88;;;1.70;99.90;;;;;;6073272;22;87277;-77
2024/01/15 13:40:09;;;;;;;6.95;2.95;;;1.70;99.90;;;;;;6058319;23;87772;-77
2024/01/15 13:42:39;;;;;;;4.50;1.80;;;1.60;99.90;;;;;;6060613;23;86542;-77
2024/01/15 13:45:06;;;;;;;6.70;1.88;;;1.60;99.90;;;;;;6061910;23;86062;-76
2024/01/15 13:47:33;;;;;;;3.97;1.42;;;1.60;99.90;;;;;;6060538;23;85804;-77
2024/01/15 13:49:59;;;;;;;10.20;1.58;;;1.70;99.90;;;;;;6056264;23;86511;-73
2024/01/15 13:52:27;;;;;;;4.65;1.55;;;1.60;99.90;;;;;;6066490;23;86594;-73
2024/01/15 14:44:09;;;;;;;5.60;2.13;;;2.10;99.90;;;;;;6139798;22;87155;-77
2024/01/15 14:51:41;;;;;;;6.25;2.55;;;1.90;99.90;;;;;;6118950;23;85949;-74
2024/01/15 14:54:08;;;;;;;5.00;2.50;;;1.90;99.90;;;;;;6086386;23;85713;-73
2024/01/15 14:56:34;;;;;;;5.55;1.98;;;1.90;99.90;;;;;;6131683;22;89419;-77
2024/01/15 14:59:00;;;;;;;8.55;2.42;;;1.80;99.90;;;;;;6109092;23;86986;-75
2024/01/15 15:01:26;;;;;;;4.25;2.15;;;1.80;99.90;;;;;;6139319;23;86359;-78
2024/01/15 15:03:52;;;;;;;5.78;2.45;;;1.80;99.90;;;;;;6133200;23;86543;-79
2024/01/15 15:06:20;;;;;;;8.23;2.60;;;1.70;99.90;;;;;;6117398;23;85923;-74
2024/01/15 15:08:47;;;;;;;6.53;2.45;;;1.70;99.90;;;;;;6147801;22;85418;-73
2024/01/15 15:18:54;;;;;;;4.35;1.80;;;1.70;99.90;;;;;;6174804;22;86078;-74
2024/01/15 15:21:21;;;;;;;6.03;2.53;;;1.70;99.90;;;;;;6154376;22;86674;-73
2024/01/15 15:23:49;;;;;;;2.50;1.75;;;1.70;99.90;;;;;;6154654;22;86904;-74
2024/01/15 15:26:16;;;;;;;7.20;1.30;;;1.70;99.90;;;;;;6181026;22;85437;-74
2024/01/15 15:28:42;;;;;;;5.55;1.73;;;1.70;99.90;;;;;;6181318;22;85422;-74
2024/01/15 15:58:07;;;;;;;4.20;1.38;;;1.40;99.90;;;;;;6158722;22;87375;-75
2024/01/15 16:19:11;;;;;;;5.05;1.80;;;1.20;99.90;;;;;;6154481;22;87112;-74
2024/01/15 16:29:24;;;;;;;9.20;2.17;;;1.10;99.90;;;;;;6149836;22;86933;-76
2024/01/15 16:31:49;;;;;;;6.90;2.47;;;1.20;99.90;;;;;;6137039;22;85707;-77
2024/01/15 16:34:15;;;;;;;8.25;3.05;;;1.20;99.90;;;;;;6135985;22;86675;-78
2024/01/15 16:49:38;;;;;;;8.05;4.47;;;1.10;99.90;;;;;;6178260;22;85277;-76
2024/01/15 16:52:05;;;;;;;5.70;4.25;;;1.10;99.90;;;;;;6135636;22;86065;-77
2024/01/15 16:54:35;;;;;;;12.63;4.70;;;1.10;99.90;;;;;;6139552;22;87145;-76
2024/01/15 17:27:58;;;;;;;12.10;5.22;;;1.10;99.90;;;;;;6150338;22;87453;-76
2024/01/15 17:46:00;;;;;;;9.88;4.00;;;1.00;99.90;;;;;;6159719;22;87065;-76
2024/01/15 17:48:27;;;;;;;12.60;4.68;;;1.00;99.90;;;;;;6173576;22;86651;-79
2024/01/15 17:50:54;;;;;;;15.30;4.05;;;0.90;99.90;;;;;;6145883;22;85672;-77
2024/01/15 17:53:20;;;;;;;12.32;3.10;;;0.90;99.90;;;;;;6146479;22;85635;-77
2024/01/15 17:55:45;;;;;;;15.05;4.13;;;0.90;99.90;;;;;;6167258;22;86259;-78
2024/01/15 17:58:11;;;;;;;10.77;2.80;;;0.90;99.90;;;;;;6145540;22;87146;-75
2024/01/15 18:00:38;;;;;;;13.77;3.92;;;0.90;99.90;;;;;;6155846;22;87186;-74
2024/01/15 18:03:04;;;;;;;9.93;3.10;;;0.80;99.90;;;;;;6148822;22;87033;-75
2024/01/15 18:05:31;;;;;;;9.55;3.55;;;0.80;99.90;;;;;;6169640;22;86708;-76
2024/01/15 18:20:48;;;;;;;14.20;3.05;;;0.80;99.90;;;;;;6153840;22;87514;-75
2024/01/15 18:23:14;;;;;;;8.05;2.50;;;0.70;99.90;;;;;;6140169;22;87355;-77
2024/01/15 18:25:40;;;;;;;9.27;3.30;;;0.70;99.90;;;;;;6145491;22;85429;-75
2024/01/15 18:28:10;;;;;;;7.07;2.85;;;0.70;99.90;;;;;;6135186;22;87779;-75
2024/01/15 18:30:36;;;;;;;12.30;3.60;;;0.70;99.90;;;;;;6173709;22;88500;-75
2024/01/15 18:33:02;;;;;;;16.30;3.92;;;0.70;99.90;;;;;;6178457;22;85131;-75
2024/01/15 18:35:29;;;;;;;9.73;4.05;;;0.70;99.90;;;;;;6128824;22;88579;-75
2024/01/15 18:37:57;;;;;;;14.88;5.75;;;0.60;99.90;;;;;;6148846;22;85517;-75
2024/01/15 18:40:23;;;;;;;14.85;5.65;;;0.60;99.90;;;;;;6152548;22;86232;-76
2024/01/15 18:42:49;;;;;;;14.20;6.22;;;0.60;99.90;;;;;;6176919;22;85677;-77
2024/01/15 18:45:15;;;;;;;15.48;6.53;;;0.60;99.90;;;;;;6148035;22;86591;-76
2024/01/15 18:52:53;;;;;;;14.82;6.65;;;0.60;99.90;;;;;;6171740;22;85888;-76
2024/01/15 19:03:06;;;;;;;19.85;8.18;;;0.60;99.90;;;;;;6152829;22;87231;-78
2024/01/15 19:05:32;;;;;;;20.77;7.38;;;0.60;99.90;;;;;;6133365;22;86861;-78
2024/01/15 19:07:59;;;;;;;15.93;6.32;;;0.60;99.90;;;;;;6172384;22;86480;-77
2024/01/15 19:10:26;;;;;;;12.48;6.47;;;0.60;99.90;;;;;;6151112;22;85860;-79
2024/01/15 19:12:52;;;;;;;15.07;5.97;;;0.60;99.90;;;;;;6157527;22;86042;-78
2024/01/15 19:15:17;;;;;;;19.58;6.65;;;0.60;99.90;;;;;;6154252;22;87237;-77
2024/01/15 19:20:19;;;;;;;13.57;5.68;;;0.50;99.90;;;;;;6162676;22;87296;-80
2024/01/15 19:22:45;;;;;;;16.45;6.03;;;0.60;99.90;;;;;;6164827;22;85776;-78
2024/01/15 19:25:12;;;;;;;20.90;6.82;;;0.60;99.90;;;;;;6138106;22;86033;-78
2024/01/15 19:27:43;;;;;;;12.02;5.45;;;0.60;99.90;;;;;;6134961;22;86143;-77
2024/01/15 19:30:11;;;;;;;12.32;5.60;;;0.60;99.90;;;;;;6124288;22;86363;-77
2024/01/15 19:32:36;;;;;;;13.88;5.18;;;0.60;99.90;;;;;;6125874;22;86340;-79
2024/01/15 19:47:59;;;;;;;12.48;5.10;;;0.80;99.90;;;;;;6139263;22;88121;-76
2024/01/15 19:50:25;;;;;;;9.23;5.13;;;0.80;99.90;;;;;;6157651;22;87284;-76
2024/01/15 19:52:51;;;;;;;15.27;5.25;;;0.80;99.90;;;;;;6141242;22;88147;-75
2024/01/15 19:55:18;;;;;;;20.25;6.45;;;0.80;99.90;;;;;;6149531;22;85660;-75
2024/01/15 20:02:55;;;;;;;19.88;5.53;;;0.90;99.90;;;;;;6139206;22;87248;-79
2024/01/15 20:05:21;;;;;;;13.40;6.15;;;0.90;99.90;;;;;;6135958;22;87903;-75
2024/01/15 20:07:46;;;;;;;14.43;6.07;;;0.90;99.90;;;;;;6160757;22;86058;-77
2024/01/15 20:10:13;;;;;;;13.70;6.00;;;0.90;99.90;;;;;;6141901;22;86099;-77
2024/01/15 20:15:14;;;;;;;13.43;5.97;;;0.90;99.90;;;;;;6139533;22;87571;-76
2024/01/15 20:30:37;;;;;;;23.85;8.93;;;1.00;99.90;;;;;;6139705;22;87081;-79
2024/01/15 20:35:38;;;;;;;19.75;7.55;;;1.00;99.90;;;;;;6150318;22;87425;-79
2024/01/15 20:38:04;;;;;;;18.17;7.82;;;1.00;99.90;;;;;;6140451;22;87819;-79
2024/01/15 20:40:29;;;;;;;17.33;7.68;;;1.00;99.90;;;;;;6152987;22;85740;-78
2024/01/15 20:42:55;;;;;;;20.23;8.23;;;0.90;99.90;;;;;;6151698;22;86163;-79
2024/01/15 20:45:21;;;;;;;20.25;7.57;;;0.90;99.90;;;;;;6153443;22;86156;-78
2024/01/15 20:47:46;;;;;;;15.30;6.35;;;0.90;99.90;;;;;;6146809;22;86704;-77
2024/01/15 20:50:12;;;;;;;18.75;6.13;;;0.90;99.90;;;;;;6149129;22;86204;-79
2024/01/15 20:52:38;;;;;;;26.23;6.63;;;0.90;99.90;;;;;;6123479;22;85976;-77
2024/01/15 20:55:06;;;;;;;18.48;5.93;;;0.90;99.90;;;;;;6148656;22;87117;-77
2024/01/15 20:57:32;;;;;;;17.48;6.28;;;0.90;99.90;;;;;;6121577;22;87932;-78
2024/01/15 21:15:30;;;;;;;12.30;5.03;;;0.90;99.90;;;;;;6163152;22;88352;-74
2024/01/15 21:17:55;;;;;;;14.60;5.00;;;0.90;99.90;;;;;;6152076;22;86899;-74
2024/01/15 21:28:07;;;;;;;18.60;5.50;;;1.00;99.90;;;;;;6133083;22;87964;-76
2024/01/15 21:30:35;;;;;;;17.35;5.00;;;1.00;99.90;;;;;;6138745;22;86909;-75
2024/01/15 21:38:12;;;;;;;18.30;5.28;;;1.10;99.90;;;;;;6119961;22;85634;-76
2024/01/15 21:43:10;;;;;;;15.37;5.23;;;1.10;99.90;;;;;;6150285;22;87089;-75
2024/01/15 21:48:11;;;;;;;15.55;4.50;;;1.10;99.90;;;;;;6176334;22;86583;-76
2024/01/15 21:50:37;;;;;;;16.25;5.00;;;1.10;99.90;;;;;;6136354;22;86093;-75
2024/01/15 21:55:38;;;;;;;16.33;4.97;;;1.10;99.90;;;;;;6163449;22;87499;-75
2024/01/15 22:05:50;;;;;;;13.70;4.45;;;1.00;99.90;;;;;;6155252;22;87628;-76
2024/01/15 22:16:00;;;;;;;15.13;4.55;;;1.00;99.90;;;;;;6147147;22;87507;-76
2024/01/15 22:18:25;;;;;;;11.05;4.57;;;1.00;99.90;;;;;;6153849;22;86965;-75
2024/01/15 22:20:52;;;;;;;15.43;4.75;;;1.00;99.90;;;;;;6155659;22;87514;-75
2024/01/15 22:28:29;;;;;;;19.80;5.03;;;0.90;99.90;;;;;;6167376;22;87554;-75
2024/01/15 22:30:55;;;;;;;13.63;4.85;;;0.90;99.90;;;;;;6123458;22;87277;-75
2024/01/15 22:38:31;;;;;;;14.85;4.57;;;0.80;99.90;;;;;;6152140;22;88000;-75
2024/01/15 22:40:57;;;;;;;14.90;4.93;;;0.80;99.90;;;;;;6154507;22;85383;-75
2024/01/15 22:46:02;;;;;;;14.05;5.22;;;0.90;99.90;;;;;;6160052;22;89643;-75
2024/01/15 22:51:04;;;;;;;14.32;4.40;;;0.90;99.90;;;;;;6146936;22;87233;-75
2024/01/15 22:53:33;;;;;;;17.25;4.80;;;1.00;99.90;;;;;;6122805;22;88464;-75
2024/01/15 22:56:02;;;;;;;15.23;4.18;;;1.00;99.90;;;;;;6153696;22;86474;-76
2024/01/15 22:58:31;;;;;;;19.08;4.25;;;1.00;99.90;;;;;;6171192;22;86476;-76
2024/01/15 23:00:58;;;;;;;22.77;4.15;;;1.10;99.90;;;;;;6177954;22;86863;-75
2024/01/15 23:03:25;;;;;;;12.68;4.28;;;1.10;99.90;;;;;;6113861;22;87429;-75
2024/01/15 23:13:26;;;;;;;17.27;4.30;;;1.10;99.90;;;;;;6156623;22;86593;-75
2024/01/15 23:15:58;;;;;;;20.05;4.65;;;1.10;99.90;;;;;;6121651;22;87669;-75
2024/01/15 23:18:26;;;;;;;13.73;4.45;;;1.10;99.90;;;;;;6163339;22;85799;-76
2024/01/15 23:20:52;;;;;;;12.77;4.13;;;1.10;99.90;;;;;;6143833;22;88126;-75
2024/01/15 23:23:18;;;;;;;17.35;4.80;;;1.10;99.90;;;;;;6138169;22;85725;-75
2024/01/15 23:25:46;;;;;;;14.68;4.78;;;1.10;99.90;;;;;;6126319;22;88660;-75
2024/01/15 23:30:47;;;;;;;17.77;4.63;;;1.10;99.90;;;;;;6137879;22;88191;-75
2024/01/15 23:33:13;;;;;;;13.15;4.53;;;1.10;99.90;;;;;;6132817;22;86209;-75
2024/01/15 23:35:42;;;;;;;10.75;4.47;;;1.10;99.90;;;;;;6146679;22;86387;-75
2024/01/15 23:40:43;;;;;;;21.77;5.70;;;1.10;99.90;;;;;;6151571;22;87837;-75
2024/01/15 23:43:09;;;;;;;14.02;4.50;;;1.10;99.90;;;;;;6172250;22;87151;-75
2024/01/15 23:45:35;;;;;;;8.32;4.35;;;1.10;99.90;;;;;;6103368;22;87573;-75
2024/01/15 23:48:02;;;;;;;20.40;4.90;;;1.10;99.90;;;;;;6105094;22;87601;-77
2024/01/15 23:50:31;;;;;;;18.38;4.90;;;1.10;99.90;;;;;;6128165;22;87263;-75
2024/01/15 23:52:57;;;;;;;11.07;4.25;;;1.10;99.90;;;;;;6135494;22;87042;-76
2024/01/15 23:55:23;;;;;;;13.90;4.18;;;1.10;99.90;;;;;;6098205;23;87373;-75
